createdAt,value
2019-02-19T00:00:31.722Z,4.80
2019-02-19T00:02:58.445Z,4.57
2019-02-19T00:05:25.216Z,5.20
2019-02-19T00:07:51.932Z,5.50
2019-02-19T00:10:22.127Z,3.90
2019-02-19T00:12:48.903Z,5.00
2019-02-19T00:15:15.660Z,5.33
2019-02-19T00:17:42.418Z,4.63
2019-02-19T00:20:09.257Z,4.83
2019-02-19T00:22:35.999Z,3.87
2019-02-19T00:25:02.815Z,4.37
2019-02-19T00:27:31.217Z,3.70
2019-02-19T00:29:58.327Z,4.00
2019-02-19T00:32:25.050Z,4.53
2019-02-19T00:34:51.774Z,4.00
2019-02-19T00:37:18.506Z,4.73
2019-02-19T00:39:47.685Z,3.70
2019-02-19T00:42:14.398Z,4.00
2019-02-19T00:44:41.447Z,3.70
2019-02-19T00:47:10.355Z,3.80
2019-02-19T00:49:37.172Z,3.73
2019-02-19T00:52:03.933Z,3.00
2019-02-19T00:54:32.571Z,3.37
2019-02-19T00:56:59.932Z,3.00
2019-02-19T00:59:26.687Z,3.27
2019-02-19T01:01:53.469Z,3.60
2019-02-19T01:04:23.334Z,3.50
2019-02-19T01:06:50.098Z,3.60
2019-02-19T01:09:16.838Z,3.00
2019-02-19T01:11:43.599Z,3.20
2019-02-19T01:14:10.358Z,3.10
2019-02-19T01:16:37.412Z,3.50
2019-02-19T01:19:04.683Z,3.83
2019-02-19T01:21:31.414Z,3.87
2019-02-19T01:23:58.137Z,4.00
2019-02-19T01:26:24.844Z,3.90
2019-02-19T01:28:51.580Z,3.50
2019-02-19T01:31:18.388Z,3.60
2019-02-19T01:33:45.466Z,3.70
2019-02-19T01:36:12.192Z,4.00
2019-02-19T01:38:38.938Z,3.43
2019-02-19T01:41:11.263Z,4.03
2019-02-19T01:43:37.995Z,3.37
2019-02-19T01:46:04.732Z,4.00
2019-02-19T01:48:31.458Z,4.07
2019-02-19T01:50:58.215Z,4.40
2019-02-19T01:53:24.961Z,4.17
2019-02-19T01:55:51.681Z,3.97
2019-02-19T01:58:18.402Z,3.70
2019-02-19T02:00:45.136Z,3.53
2019-02-19T02:03:14.753Z,3.80
2019-02-19T02:05:41.490Z,3.40
2019-02-19T02:08:08.261Z,3.80
2019-02-19T02:10:36.886Z,3.40
2019-02-19T02:13:03.615Z,3.90
2019-02-19T02:15:30.354Z,3.70
2019-02-19T02:17:57.420Z,3.50
2019-02-19T02:20:24.140Z,3.57
2019-02-19T02:22:50.895Z,3.73
2019-02-19T02:25:17.617Z,3.70
2019-02-19T02:27:44.361Z,3.30
2019-02-19T02:30:11.102Z,3.83
2019-02-19T02:32:37.965Z,3.43
2019-02-19T02:35:04.749Z,4.00
2019-02-19T02:37:31.481Z,3.37
2019-02-19T02:39:58.283Z,3.37
2019-02-19T02:42:25.010Z,3.80
2019-02-19T02:44:51.760Z,3.70
2019-02-19T02:47:18.490Z,4.00
2019-02-19T02:49:45.216Z,3.80
2019-02-19T02:52:12.078Z,3.40
2019-02-19T02:54:38.824Z,3.20
2019-02-19T02:57:05.552Z,3.10
2019-02-19T02:59:32.299Z,3.90
2019-02-19T03:02:01.076Z,3.80
2019-02-19T03:04:28.161Z,3.60
2019-02-19T03:07:08.031Z,4.00
2019-02-19T03:09:34.747Z,3.43
2019-02-19T03:12:03.418Z,3.97
2019-02-19T03:14:30.301Z,3.50
2019-02-19T03:16:58.724Z,3.57
2019-02-19T03:19:25.869Z,3.53
2019-02-19T03:21:53.243Z,3.30
2019-02-19T03:24:20.009Z,3.63
2019-02-19T03:26:46.774Z,3.73
2019-02-19T03:29:13.900Z,3.40
2019-02-19T03:31:42.943Z,3.70
2019-02-19T03:34:09.689Z,4.10
2019-02-19T03:36:36.438Z,4.00
2019-02-19T03:39:04.194Z,3.73
2019-02-19T03:41:31.387Z,4.60
2019-02-19T03:43:58.171Z,4.03
2019-02-19T03:46:25.272Z,4.20
2019-02-19T03:48:52.063Z,4.03
2019-02-19T03:51:18.832Z,4.07
2019-02-19T03:53:45.566Z,4.03
2019-02-19T03:56:12.297Z,3.80
2019-02-19T03:58:39.035Z,4.23
2019-02-19T04:01:05.792Z,4.33
2019-02-19T04:03:32.526Z,4.13
2019-02-19T04:05:59.253Z,4.43
2019-02-19T04:08:26.014Z,4.30
2019-02-19T04:10:52.730Z,4.20
2019-02-19T04:13:19.484Z,4.30
2019-02-19T04:15:46.227Z,4.53
2019-02-19T04:18:12.963Z,5.10
2019-02-19T04:20:39.694Z,3.73
2019-02-19T04:23:06.435Z,4.23
2019-02-19T04:25:33.138Z,4.40
2019-02-19T04:27:59.866Z,4.20
2019-02-19T04:30:26.599Z,3.87
2019-02-19T04:32:53.347Z,4.23
2019-02-19T04:35:20.075Z,3.87
2019-02-19T04:37:46.801Z,4.57
2019-02-19T04:40:13.879Z,4.07
2019-02-19T04:42:40.614Z,4.00
2019-02-19T04:45:07.535Z,4.20
2019-02-19T04:47:34.277Z,4.40
2019-02-19T04:50:01.631Z,3.90
2019-02-19T04:52:28.779Z,4.47
2019-02-19T04:54:57.537Z,4.50
2019-02-19T04:57:27.198Z,3.93
2019-02-19T04:59:54.055Z,4.30
2019-02-19T05:02:20.870Z,4.37
2019-02-19T05:04:47.625Z,4.13
2019-02-19T05:07:14.377Z,4.30
2019-02-19T05:09:41.800Z,4.17
2019-02-19T05:12:08.511Z,4.33
2019-02-19T05:14:35.241Z,4.80
2019-02-19T05:17:01.963Z,4.10
2019-02-19T05:19:31.015Z,4.43
2019-02-19T05:21:57.748Z,4.27
2019-02-19T05:24:26.663Z,4.80
2019-02-19T05:26:53.401Z,4.60
2019-02-19T05:29:20.245Z,3.83
2019-02-19T05:31:46.969Z,4.83
2019-02-19T05:34:13.714Z,4.23
2019-02-19T05:36:40.449Z,4.57
2019-02-19T05:39:07.232Z,4.60
2019-02-19T05:41:33.947Z,5.00
2019-02-19T05:44:00.686Z,4.97
2019-02-19T05:46:27.562Z,4.83
2019-02-19T05:48:54.297Z,4.50
2019-02-19T05:51:22.559Z,4.90
2019-02-19T05:53:49.435Z,4.77
2019-02-19T05:56:18.561Z,4.50
2019-02-19T05:58:48.739Z,5.13
2019-02-19T06:01:15.423Z,5.00
2019-02-19T06:03:42.158Z,5.27
2019-02-19T06:06:10.775Z,6.10
2019-02-19T06:08:37.502Z,5.33
2019-02-19T06:11:04.253Z,5.33
2019-02-19T06:13:31.330Z,5.50
2019-02-19T06:15:58.073Z,5.33
2019-02-19T06:18:24.779Z,5.77
2019-02-19T06:20:51.510Z,5.93
2019-02-19T06:23:18.236Z,6.07
2019-02-19T06:25:46.872Z,5.80
2019-02-19T06:28:13.605Z,6.07
2019-02-19T06:30:40.334Z,5.33
2019-02-19T06:33:07.371Z,5.83
2019-02-19T06:35:34.119Z,4.70
2019-02-19T06:38:00.867Z,5.50
2019-02-19T06:40:28.014Z,5.10
2019-02-19T06:42:54.771Z,6.50
2019-02-19T06:45:21.496Z,5.00
2019-02-19T06:47:48.335Z,4.87
2019-02-19T06:50:15.164Z,5.50
2019-02-19T06:52:41.908Z,5.37
2019-02-19T06:55:11.933Z,5.00
2019-02-19T06:57:38.625Z,5.43
2019-02-19T07:00:05.790Z,5.43
2019-02-19T07:02:58.222Z,5.40
2019-02-19T07:05:26.373Z,5.77
2019-02-19T07:07:53.097Z,5.07
2019-02-19T07:10:19.862Z,6.43
2019-02-19T07:12:46.573Z,5.60
2019-02-19T07:15:13.315Z,4.83
2019-02-19T07:17:40.043Z,5.73
2019-02-19T07:20:06.936Z,5.37
2019-02-19T07:22:33.649Z,5.40
2019-02-19T07:25:00.381Z,5.77
2019-02-19T07:27:27.139Z,5.50
2019-02-19T07:29:56.781Z,5.73
2019-02-19T07:32:22.986Z,6.00
2019-02-19T07:34:49.731Z,5.60
2019-02-19T07:37:16.473Z,6.27
2019-02-19T07:39:43.200Z,6.23
2019-02-19T07:42:09.941Z,6.40
2019-02-19T07:44:36.655Z,5.50
2019-02-19T07:47:03.375Z,6.00
2019-02-19T07:49:30.232Z,5.93
2019-02-19T07:51:57.386Z,6.53
2019-02-19T07:54:24.107Z,5.97
2019-02-19T07:56:50.857Z,6.60
2019-02-19T07:59:17.605Z,5.97
2019-02-19T08:01:47.177Z,5.90
2019-02-19T08:04:13.914Z,6.30
2019-02-19T08:06:42.231Z,6.70
2019-02-19T08:09:14.358Z,5.80
2019-02-19T08:11:41.125Z,7.70
2019-02-19T08:14:07.845Z,6.30
2019-02-19T08:16:34.605Z,6.90
2019-02-19T08:19:01.311Z,8.30
2019-02-19T08:21:28.087Z,7.60
2019-02-19T08:23:54.951Z,7.20
2019-02-19T08:26:22.056Z,8.43
2019-02-19T08:28:49.145Z,7.30
2019-02-19T08:31:17.775Z,8.50
2019-02-19T08:33:44.899Z,7.30
2019-02-19T08:36:12.751Z,7.67
2019-02-19T08:38:39.531Z,8.33
2019-02-19T08:41:06.277Z,7.73
2019-02-19T08:43:33.050Z,8.57
2019-02-19T08:46:01.026Z,7.80
2019-02-19T08:48:27.756Z,8.20
2019-02-19T08:50:56.136Z,7.50
2019-02-19T08:53:23.597Z,10.60
2019-02-19T08:55:53.144Z,8.17
2019-02-19T08:58:19.890Z,8.00
2019-02-19T09:00:47.607Z,8.23
2019-02-19T09:03:14.340Z,8.93
2019-02-19T09:05:41.089Z,8.30
2019-02-19T09:08:07.803Z,8.93
2019-02-19T09:10:34.743Z,8.53
2019-02-19T09:13:01.560Z,8.57
2019-02-19T09:15:28.680Z,9.30
2019-02-19T09:17:55.453Z,9.27
2019-02-19T09:20:22.159Z,8.47
2019-02-19T09:22:49.027Z,11.43
2019-02-19T09:25:16.078Z,7.80
2019-02-19T09:27:45.402Z,8.70
2019-02-19T09:30:12.133Z,8.83
2019-02-19T09:32:38.851Z,7.80
2019-02-19T09:35:05.789Z,7.30
2019-02-19T09:37:32.984Z,7.60
2019-02-19T09:39:59.737Z,7.87
2019-02-19T09:42:26.486Z,7.37
2019-02-19T09:44:56.009Z,8.80
2019-02-19T09:47:22.758Z,7.77
2019-02-19T09:49:49.585Z,7.83
2019-02-19T09:52:17.667Z,7.43
2019-02-19T09:54:44.521Z,7.90
2019-02-19T09:57:11.350Z,7.20
2019-02-19T09:59:39.551Z,7.93
2019-02-19T10:02:06.347Z,8.23
2019-02-19T10:04:33.183Z,8.93
2019-02-19T10:07:02.911Z,7.90
2019-02-19T10:09:29.710Z,7.97
2019-02-19T10:11:56.436Z,7.97
2019-02-19T10:14:23.214Z,7.97
2019-02-19T10:16:49.957Z,8.40
2019-02-19T10:19:16.699Z,7.00
2019-02-19T10:21:43.408Z,8.47
2019-02-19T10:24:22.160Z,7.90
2019-02-19T10:26:49.745Z,7.67
2019-02-19T10:29:16.681Z,8.13
2019-02-19T10:31:43.418Z,8.40
2019-02-19T10:34:10.159Z,8.67
2019-02-19T10:36:38.768Z,7.90
2019-02-19T10:39:07.440Z,8.57
2019-02-19T10:41:34.193Z,8.13
2019-02-19T10:44:01.020Z,7.70
2019-02-19T10:46:27.752Z,8.90
2019-02-19T10:48:54.800Z,8.97
2019-02-19T10:51:21.544Z,8.57
2019-02-19T10:53:48.396Z,7.90
2019-02-19T10:56:15.301Z,7.90
2019-02-19T10:58:42.044Z,7.80
2019-02-19T11:01:09.030Z,8.20
2019-02-19T11:03:35.804Z,8.30
2019-02-19T11:06:02.960Z,7.43
2019-02-19T11:08:29.764Z,7.50
2019-02-19T11:10:56.889Z,8.23
2019-02-19T11:13:23.609Z,8.00
2019-02-19T11:15:52.812Z,7.90
2019-02-19T11:18:28.083Z,8.63
2019-02-19T11:20:50.096Z,7.70
2019-02-19T11:23:17.224Z,9.20
2019-02-19T11:25:44.012Z,8.10
2019-02-19T11:28:12.930Z,8.33
2019-02-19T11:30:42.461Z,7.63
2019-02-19T11:33:09.224Z,8.20
2019-02-19T11:35:35.906Z,8.43
2019-02-19T11:38:02.722Z,7.83
2019-02-19T11:40:29.467Z,8.07
2019-02-19T11:42:56.183Z,8.03
2019-02-19T11:45:22.923Z,7.40
2019-02-19T11:47:49.642Z,7.63
2019-02-19T11:50:16.996Z,8.60
2019-02-19T11:52:44.016Z,7.60
2019-02-19T11:55:14.002Z,7.37
2019-02-19T11:57:42.329Z,7.17
2019-02-19T12:00:12.942Z,6.47
2019-02-19T12:02:39.684Z,7.00
2019-02-19T12:05:07.002Z,7.00
2019-02-19T12:07:33.931Z,7.87
2019-02-19T12:10:04.256Z,7.03
2019-02-19T12:12:31.202Z,8.37
2019-02-19T12:14:58.264Z,7.80
2019-02-19T12:17:27.696Z,8.10
2019-02-19T12:19:54.563Z,7.60
2019-02-19T12:22:21.281Z,6.33
2019-02-19T12:24:48.656Z,7.30
2019-02-19T12:27:15.665Z,8.30
2019-02-19T12:29:42.420Z,8.10
2019-02-19T12:32:11.007Z,7.80
2019-02-19T12:34:39.613Z,6.13
2019-02-19T12:37:07.522Z,6.57
2019-02-19T12:39:34.364Z,6.60
2019-02-19T12:42:01.062Z,6.40
2019-02-19T12:44:27.781Z,6.20
2019-02-19T12:46:54.476Z,10.90
2019-02-19T12:49:22.721Z,5.67
2019-02-19T12:51:49.463Z,6.13
2019-02-19T12:54:16.194Z,6.00
2019-02-19T12:56:43.061Z,5.50
2019-02-19T12:59:10.176Z,5.67
2019-02-19T13:01:36.898Z,5.77
2019-02-19T13:04:03.596Z,4.90
2019-02-19T13:06:32.236Z,6.10
2019-02-19T13:08:58.922Z,5.70
2019-02-19T13:11:25.672Z,5.97
2019-02-19T13:13:52.581Z,6.10
2019-02-19T13:16:19.295Z,6.43
2019-02-19T13:18:46.533Z,6.53
2019-02-19T13:21:16.862Z,7.00
2019-02-19T13:23:46.083Z,6.20
2019-02-19T13:26:12.822Z,5.50
2019-02-19T13:28:39.561Z,5.40
2019-02-19T13:31:06.267Z,5.80
2019-02-19T13:33:32.990Z,5.30
2019-02-19T13:35:59.863Z,5.70
2019-02-19T13:38:26.614Z,5.87
2019-02-19T13:40:53.517Z,5.10
2019-02-19T13:43:22.140Z,5.17
2019-02-19T13:45:49.175Z,5.00
2019-02-19T13:48:15.976Z,3.17
2019-02-19T13:50:43.050Z,3.13
2019-02-19T13:53:20.435Z,2.93
2019-02-19T13:55:49.985Z,4.03
2019-02-19T13:58:16.760Z,3.00
2019-02-19T14:00:44.934Z,3.47
2019-02-19T14:03:11.665Z,3.50
2019-02-19T14:05:38.406Z,3.13
2019-02-19T14:08:14.326Z,2.80
2019-02-19T14:10:36.608Z,2.93
2019-02-19T14:13:03.641Z,3.20
2019-02-19T14:15:47.094Z,3.17
2019-02-19T14:18:16.557Z,2.73
2019-02-19T14:21:01.485Z,3.80
2019-02-19T14:23:53.771Z,3.87
2019-02-19T14:26:38.437Z,3.57
2019-02-19T14:29:23.132Z,3.30
2019-02-19T14:32:06.954Z,3.70
2019-02-19T14:34:54.623Z,2.87
2019-02-19T14:37:52.956Z,3.30
2019-02-19T14:40:45.537Z,3.17
2019-02-19T14:43:38.436Z,4.20
2019-02-19T14:46:20.013Z,2.50
2019-02-19T14:48:56.522Z,3.10
2019-02-19T14:51:46.638Z,3.13
2019-02-19T14:54:26.131Z,3.40
2019-02-19T14:57:12.511Z,3.10
2019-02-19T15:00:05.698Z,3.83
2019-02-19T15:02:45.527Z,3.90
2019-02-19T15:05:34.889Z,3.60
2019-02-19T15:08:19.853Z,4.30
2019-02-19T15:10:57.872Z,3.10
2019-02-19T15:13:37.712Z,3.40
2019-02-19T15:16:11.201Z,3.27
2019-02-19T15:19:07.052Z,3.37
2019-02-19T15:21:51.731Z,4.00
2019-02-19T15:24:31.907Z,3.73
2019-02-19T15:27:04.837Z,3.43
2019-02-19T15:29:46.395Z,3.20
2019-02-19T15:32:48.089Z,3.83
2019-02-19T15:35:26.514Z,3.40
2019-02-19T15:38:14.621Z,3.80
2019-02-19T15:40:55.214Z,4.10
2019-02-19T15:43:46.512Z,3.60
2019-02-19T15:46:32.954Z,4.30
2019-02-19T15:49:19.305Z,3.83
2019-02-19T15:52:05.632Z,3.83
2019-02-19T15:55:00.881Z,3.30
2019-02-19T15:57:53.110Z,3.40
2019-02-19T16:00:42.539Z,2.47
2019-02-19T16:03:22.374Z,2.67
2019-02-19T16:05:53.923Z,2.73
2019-02-19T16:08:41.680Z,2.00
2019-02-19T16:11:19.717Z,2.43
2019-02-19T16:14:21.139Z,1.90
2019-02-19T16:17:02.403Z,2.27
2019-02-19T16:19:36.943Z,2.70
2019-02-19T16:22:14.224Z,2.03
2019-02-19T16:25:00.657Z,2.00
2019-02-19T16:27:52.962Z,2.40
2019-02-19T16:30:41.824Z,2.10
2019-02-19T16:33:19.115Z,2.40
2019-02-19T16:36:08.787Z,2.10
2019-02-19T16:38:50.833Z,2.20
2019-02-19T16:41:43.119Z,1.90
2019-02-19T16:44:25.109Z,2.13
2019-02-19T16:47:10.693Z,2.33
2019-02-19T16:49:54.144Z,2.17
2019-02-19T16:52:29.359Z,2.43
2019-02-19T16:55:11.888Z,2.60
2019-02-19T16:57:53.679Z,2.40
2019-02-19T17:00:27.916Z,2.90
2019-02-19T17:03:03.981Z,2.40
2019-02-19T17:05:45.853Z,2.37
2019-02-19T17:08:34.962Z,2.63
2019-02-19T17:11:22.344Z,3.00
2019-02-19T17:14:32.957Z,2.67
2019-02-19T17:17:06.714Z,3.30
2019-02-19T17:19:51.628Z,3.57
2019-02-19T17:22:38.133Z,4.10
2019-02-19T17:25:36.677Z,3.40
2019-02-19T17:28:12.705Z,3.60
2019-02-19T17:31:08.854Z,4.10
2019-02-19T17:33:55.572Z,3.67
2019-02-19T17:36:38.001Z,3.70
2019-02-19T17:39:24.896Z,4.07
2019-02-19T17:42:04.616Z,3.37
2019-02-19T17:44:44.242Z,3.53
2019-02-19T17:47:28.435Z,4.07
2019-02-19T17:50:11.380Z,4.30
2019-02-19T17:52:57.781Z,3.97
2019-02-19T17:56:02.482Z,5.37
2019-02-19T17:58:48.858Z,4.17
2019-02-19T18:01:25.428Z,3.83
2019-02-19T18:04:14.898Z,4.17
2019-02-19T18:06:51.880Z,3.90
2019-02-19T18:09:28.995Z,4.40
2019-02-19T18:12:30.343Z,4.37
2019-02-19T18:15:08.835Z,5.70
2019-02-19T18:17:55.208Z,4.83
2019-02-19T18:20:22.021Z,5.10
2019-02-19T18:22:48.671Z,4.67
2019-02-19T18:25:18.199Z,5.13
2019-02-19T18:27:44.970Z,6.23
2019-02-19T18:30:11.868Z,6.80
2019-02-19T18:32:38.951Z,5.30
2019-02-19T18:35:05.827Z,5.80
2019-02-19T18:37:32.834Z,5.57
2019-02-19T18:39:59.575Z,5.80
2019-02-19T18:42:26.300Z,4.57
2019-02-19T18:44:56.922Z,5.30
2019-02-19T18:47:23.857Z,5.67
2019-02-19T18:49:50.759Z,4.90
2019-02-19T18:52:17.493Z,5.33
2019-02-19T18:54:44.340Z,5.57
2019-02-19T18:57:11.078Z,4.73
2019-02-19T18:59:39.007Z,4.90
2019-02-19T19:02:06.004Z,6.73
2019-02-19T19:04:32.765Z,4.40
2019-02-19T19:06:59.716Z,4.20
2019-02-19T19:09:26.534Z,4.13
2019-02-19T19:11:53.452Z,3.87
2019-02-19T19:14:20.793Z,3.67
2019-02-19T19:16:47.525Z,4.47
2019-02-19T19:19:14.264Z,4.20
2019-02-19T19:21:41.016Z,4.67
2019-02-19T19:24:07.871Z,4.73
2019-02-19T19:26:35.023Z,5.37
2019-02-19T19:29:01.799Z,5.57
2019-02-19T19:31:33.615Z,5.30
2019-02-19T19:33:57.566Z,5.07
2019-02-19T19:36:29.707Z,5.33
2019-02-19T19:38:59.343Z,6.07
2019-02-19T19:41:26.396Z,5.20
2019-02-19T19:43:53.307Z,5.33
2019-02-19T19:46:20.123Z,5.40
2019-02-19T19:48:46.971Z,5.30
2019-02-19T19:51:17.310Z,5.80
2019-02-19T19:53:42.757Z,6.20
2019-02-19T19:56:09.520Z,8.30
2019-02-19T19:58:36.437Z,10.60
2019-02-19T20:01:03.233Z,8.33
2019-02-19T20:03:30.048Z,7.10
2019-02-19T20:05:56.880Z,7.30
2019-02-19T20:08:26.963Z,6.63
2019-02-19T20:10:53.829Z,6.63
2019-02-19T20:13:21.201Z,6.00
2019-02-19T20:15:48.191Z,5.90
2019-02-19T20:18:15.378Z,5.50
2019-02-19T20:20:42.942Z,5.17
2019-02-19T20:23:09.795Z,5.23
2019-02-19T20:25:36.541Z,4.57
2019-02-19T20:28:03.405Z,4.57
2019-02-19T20:30:30.251Z,4.43
2019-02-19T20:33:00.251Z,4.03
2019-02-19T20:35:27.355Z,4.10
2019-02-19T20:37:54.345Z,6.00
2019-02-19T20:40:21.579Z,4.80
2019-02-19T20:42:51.140Z,5.03
2019-02-19T20:45:18.350Z,4.57
2019-02-19T20:47:45.363Z,4.47
2019-02-19T20:50:12.094Z,3.73
2019-02-19T20:52:38.873Z,4.93
2019-02-19T20:55:06.332Z,4.40
2019-02-19T20:57:33.074Z,3.50
2019-02-19T20:59:59.907Z,3.80
2019-02-19T21:02:28.923Z,3.73
2019-02-19T21:04:55.758Z,3.93
2019-02-19T21:07:22.805Z,4.67
2019-02-19T21:09:49.718Z,4.10
2019-02-19T21:12:16.683Z,4.10
2019-02-19T21:14:43.474Z,3.80
2019-02-19T21:17:10.268Z,2.87
2019-02-19T21:19:37.135Z,3.30
2019-02-19T21:22:03.953Z,3.00
2019-02-19T21:24:30.697Z,2.90
2019-02-19T21:26:57.455Z,2.80
2019-02-19T21:29:24.179Z,2.97
2019-02-19T21:31:51.314Z,3.17
2019-02-19T21:34:19.129Z,3.20
2019-02-19T21:36:45.896Z,3.37
2019-02-19T21:39:13.006Z,2.90
2019-02-19T21:41:40.363Z,2.87
2019-02-19T21:44:07.433Z,3.20
2019-02-19T21:46:34.252Z,3.10
2019-02-19T21:49:01.171Z,2.90
2019-02-19T21:51:29.930Z,3.20
2019-02-19T21:53:58.115Z,3.67
2019-02-19T21:56:24.857Z,3.57
2019-02-19T21:58:51.904Z,4.30
2019-02-19T22:01:18.838Z,4.33
2019-02-19T22:03:45.582Z,5.33
2019-02-19T22:06:12.282Z,6.20
2019-02-19T22:08:39.012Z,6.30
2019-02-19T22:11:05.966Z,7.13
2019-02-19T22:13:33.151Z,5.93
2019-02-19T22:15:59.855Z,4.27
2019-02-19T22:18:29.422Z,3.90
2019-02-19T22:21:01.273Z,4.07
2019-02-19T22:23:28.148Z,3.40
2019-02-19T22:25:55.068Z,3.40
2019-02-19T22:28:22.926Z,2.80
2019-02-19T22:30:50.057Z,2.87
2019-02-19T22:33:16.781Z,2.90
2019-02-19T22:35:43.509Z,2.60
2019-02-19T22:38:11.109Z,2.97
2019-02-19T22:40:40.639Z,3.20
2019-02-19T22:43:07.766Z,3.20
2019-02-19T22:45:34.527Z,3.13
2019-02-19T22:48:01.766Z,2.87
2019-02-19T22:50:28.560Z,2.97
2019-02-19T22:52:55.269Z,3.10
2019-02-19T22:55:32.939Z,2.60
2019-02-19T22:57:59.955Z,3.00
2019-02-19T23:00:45.817Z,3.10
2019-02-19T23:03:16.704Z,3.13
2019-02-19T23:05:43.436Z,3.20
2019-02-19T23:08:10.488Z,2.67
2019-02-19T23:10:37.219Z,2.97
2019-02-19T23:13:03.979Z,3.20
2019-02-19T23:15:30.721Z,3.17
2019-02-19T23:17:57.671Z,2.70
2019-02-19T23:20:24.407Z,2.87
2019-02-19T23:22:51.811Z,3.07
2019-02-19T23:25:18.671Z,3.00
2019-02-19T23:27:45.641Z,3.30
2019-02-19T23:30:12.417Z,3.73
2019-02-19T23:32:39.535Z,3.27
2019-02-19T23:35:13.254Z,3.40
2019-02-19T23:37:39.993Z,3.30
2019-02-19T23:40:06.698Z,2.93
2019-02-19T23:42:33.751Z,3.63
2019-02-19T23:45:00.472Z,3.90
2019-02-19T23:47:27.200Z,3.00
2019-02-19T23:49:53.930Z,3.17
2019-02-19T23:52:20.710Z,3.13
2019-02-19T23:54:47.446Z,3.00
2019-02-19T23:57:14.203Z,2.60
2019-02-19T23:59:40.911Z,3.20
